This is the latest recevied weather packets stored in our database for station/object KJ6APE. If no packets are shown the sender has not sent any weather packets the latest 10 day(s).
| Time | Temp. | Humidity | Pressure | Rain* | Wind** | Luminosity | Snow |
|---|---|---|---|---|---|---|---|
| 1777750607 | 16.67° C | 68% | 1013.8 hPa | 0 mm | - | 655 W/m² | - |
| 1777750304 | 16.67° C | 69% | 1013.9 hPa | 0 mm | - | 561 W/m² | - |
| 1777749999 | 17.22° C | 67% | 1013.9 hPa | 0 mm | - | 659 W/m² | - |
| 1777749697 | 17.78° C | 67% | 1013.8 hPa | 0 mm | - | 780 W/m² | - |
| 1777749393 | 16.67° C | 70% | 1013.7 hPa | 0 mm | - | 826 W/m² | - |
| 1777749091 | 16.67° C | 69% | 1013.9 hPa | 0 mm | - | 836 W/m² | - |
| 1777748788 | 16.67° C | 68% | 1013.9 hPa | 0 mm | - | 828 W/m² | - |
| 1777748487 | 15.56° C | 72% | 1013.8 hPa | 0 mm | - | 544 W/m² | - |
| 1777748180 | 15.56° C | 73% | 1013.9 hPa | 0 mm | - | 499 W/m² | - |
| 1777747877 | 15.56° C | 73% | 1014 hPa | 0 mm | - | 493 W/m² | - |
| 1777747574 | 15.56° C | 73% | 1013.9 hPa | 0 mm | - | 414 W/m² | - |
| 1777747269 | 15.56° C | 74% | 1013.8 hPa | 0 mm | - | 516 W/m² | - |
| 1777746966 | 16.11° C | 72% | 1013.9 hPa | 0 mm | - | 426 W/m² | - |
| 1777746662 | 16.11° C | 72% | 1013.7 hPa | 0 mm | - | 548 W/m² | - |
| 1777746357 | 16.11° C | 72% | 1013.7 hPa | 0 mm | - | 583 W/m² | - |
| 1777746053 | 16.11° C | 73% | 1013.7 hPa | 0 mm | - | 625 W/m² | - |
| 1777745751 | 16.11° C | 72% | 1013.8 hPa | 0 mm | - | 416 W/m² | - |
| 1777745449 | 16.11° C | 70% | 1013.8 hPa | 0 mm | - | 421 W/m² | - |
| 1777745146 | 16.11° C | 72% | 1013.7 hPa | 0 mm | - | 446 W/m² | - |
| 1777744843 | 16.11° C | 72% | 1013.7 hPa | 0 mm | - | 495 W/m² | - |
| 1777744537 | 15.56° C | 74% | 1013.8 hPa | 0 mm | - | 506 W/m² | - |
| 1777744233 | 15.56° C | 73% | 1013.7 hPa | 0 mm | - | 436 W/m² | - |
| 1777743931 | 15.56° C | 73% | 1013.7 hPa | 0 mm | - | 369 W/m² | - |
| 1777743627 | 15.56° C | 72% | 1013.6 hPa | 0 mm | - | 385 W/m² | - |
| 1777743325 | 16.11° C | 72% | 1013.6 hPa | 0 mm | - | 326 W/m² | - |
* Rain latest hour (hover to see other rain measurements)
** Current wind speed in m/s (hover to see current wind gust speed)